createdAt,value
2019-03-22T00:01:12.836Z,6.77
2019-03-22T00:03:52.606Z,7.37
2019-03-22T00:06:32.665Z,7.70
2019-03-22T00:09:13.415Z,7.30
2019-03-22T00:11:55.384Z,7.53
2019-03-22T00:14:37.018Z,6.60
2019-03-22T00:17:19.145Z,6.93
2019-03-22T00:19:59.469Z,7.13
2019-03-22T00:22:39.564Z,6.93
2019-03-22T00:25:19.822Z,6.30
2019-03-22T00:28:00.000Z,6.90
2019-03-22T00:30:40.283Z,6.47
2019-03-22T00:33:20.397Z,6.47
2019-03-22T00:36:00.464Z,6.40
2019-03-22T00:38:41.022Z,7.20
2019-03-22T00:41:20.653Z,6.93
2019-03-22T00:44:00.741Z,6.90
2019-03-22T00:46:40.789Z,7.53
2019-03-22T00:49:20.887Z,7.73
2019-03-22T00:52:00.954Z,8.23
2019-03-22T00:54:41.907Z,8.40
2019-03-22T00:57:28.532Z,7.90
2019-03-22T01:00:04.478Z,7.57
2019-03-22T01:02:32.733Z,7.40
2019-03-22T01:05:20.033Z,7.80
2019-03-22T01:08:00.381Z,7.67
2019-03-22T01:10:40.921Z,7.13
2019-03-22T01:13:21.514Z,7.40
2019-03-22T01:16:01.582Z,7.53
2019-03-22T01:18:42.473Z,6.90
2019-03-22T01:21:23.029Z,7.03
2019-03-22T01:24:03.070Z,6.93
2019-03-22T01:26:43.210Z,6.43
2019-03-22T01:29:23.234Z,6.50
2019-03-22T01:32:03.525Z,6.97
2019-03-22T01:34:43.743Z,6.67
2019-03-22T01:37:23.653Z,6.80
2019-03-22T01:40:03.629Z,7.10
2019-03-22T01:42:43.698Z,7.00
2019-03-22T01:45:23.721Z,6.43
2019-03-22T01:48:03.817Z,6.17
2019-03-22T01:50:46.065Z,7.10
2019-03-22T01:53:25.763Z,6.77
2019-03-22T01:56:05.705Z,6.50
2019-03-22T01:58:46.029Z,7.13
2019-03-22T02:01:25.962Z,6.90
2019-03-22T02:04:06.225Z,6.90
2019-03-22T02:09:16.589Z,7.03
2019-03-22T02:12:03.861Z,7.50
2019-03-22T02:14:51.200Z,6.90
2019-03-22T02:17:31.594Z,7.00
2019-03-22T02:20:11.773Z,7.30
2019-03-22T02:22:51.757Z,7.37
2019-03-22T02:25:19.993Z,7.37
2019-03-22T02:28:07.277Z,7.40
2019-03-22T02:30:47.301Z,8.03
2019-03-22T02:33:27.270Z,7.67
2019-03-22T02:36:07.290Z,7.67
2019-03-22T02:38:47.451Z,7.43
2019-03-22T02:41:27.441Z,8.00
2019-03-22T02:44:07.897Z,7.70
2019-03-22T02:46:47.618Z,7.80
2019-03-22T02:49:27.596Z,7.60
2019-03-22T02:52:07.856Z,7.20
2019-03-22T02:54:47.990Z,7.53
2019-03-22T02:57:27.951Z,7.57
2019-03-22T03:00:07.846Z,7.17
2019-03-22T03:02:48.015Z,7.40
2019-03-22T03:05:28.029Z,7.03
2019-03-22T03:08:08.105Z,7.50
2019-03-22T03:10:48.278Z,6.93
2019-03-22T03:13:28.234Z,6.33
2019-03-22T03:16:08.147Z,6.47
2019-03-22T03:18:48.155Z,7.10
2019-03-22T03:21:16.344Z,6.90
2019-03-22T03:24:03.658Z,6.50
2019-03-22T03:26:44.792Z,6.93
2019-03-22T03:29:24.956Z,6.40
2019-03-22T03:32:04.898Z,6.50
2019-03-22T03:34:45.043Z,6.87
2019-03-22T03:37:25.239Z,6.47
2019-03-22T03:40:05.678Z,6.70
2019-03-22T03:42:45.372Z,6.83
2019-03-22T03:45:25.497Z,6.50
2019-03-22T03:48:06.105Z,6.60
2019-03-22T03:50:45.825Z,6.57
2019-03-22T03:56:24.378Z,6.23
2019-03-22T03:59:04.749Z,6.23
2019-03-22T04:01:44.722Z,6.40
2019-03-22T04:04:24.979Z,6.10
2019-03-22T04:07:05.187Z,6.57
2019-03-22T04:09:45.374Z,6.63
2019-03-22T04:12:25.343Z,6.47
2019-03-22T04:17:47.265Z,6.83
2019-03-22T04:20:15.978Z,6.40
2019-03-22T04:23:03.268Z,6.60
2019-03-22T04:25:50.724Z,6.70
2019-03-22T04:28:38.042Z,7.17
2019-03-22T04:31:18.142Z,6.30
2019-03-22T04:33:58.311Z,9.73
2019-03-22T04:36:38.407Z,15.57
2019-03-22T04:39:18.907Z,23.23
2019-03-22T04:41:59.230Z,60.80
2019-03-22T04:44:39.609Z,100.97
2019-03-22T04:47:19.745Z,44.43
2019-03-22T04:49:59.622Z,11.20
2019-03-22T04:52:40.194Z,8.10
2019-03-22T04:55:20.261Z,6.07
2019-03-22T04:58:00.215Z,5.67
2019-03-22T05:00:40.609Z,6.57
2019-03-22T05:03:20.807Z,5.70
2019-03-22T05:06:00.433Z,6.10
2019-03-22T05:11:27.202Z,5.60
2019-03-22T05:14:22.925Z,5.40
2019-03-22T05:17:10.517Z,5.47
2019-03-22T05:19:50.573Z,5.37
2019-03-22T05:22:30.595Z,5.57
2019-03-22T05:25:10.728Z,6.37
2019-03-22T05:31:10.844Z,5.90
2019-03-22T05:33:53.233Z,6.47
2019-03-22T05:36:33.584Z,6.23
2019-03-22T05:39:13.546Z,6.40
2019-03-22T05:41:53.471Z,7.40
2019-03-22T05:44:33.277Z,6.90
2019-03-22T05:47:13.402Z,6.37
2019-03-22T05:49:55.126Z,6.20
2019-03-22T05:52:35.221Z,6.17
2019-03-22T05:55:15.225Z,6.80
2019-03-22T05:57:55.577Z,6.57
2019-03-22T06:00:35.842Z,6.80
2019-03-22T06:03:15.680Z,5.53
2019-03-22T06:05:55.730Z,5.73
2019-03-22T06:08:35.773Z,6.30
2019-03-22T06:11:04.351Z,6.07
2019-03-22T06:14:11.117Z,5.87
2019-03-22T06:16:58.484Z,6.10
2019-03-22T06:19:38.389Z,5.50
2019-03-22T06:22:18.366Z,5.30
2019-03-22T06:24:58.850Z,4.83
2019-03-22T06:27:38.461Z,5.10
2019-03-22T06:30:18.730Z,5.70
2019-03-22T06:32:58.928Z,6.30
2019-03-22T06:35:39.298Z,6.10
2019-03-22T06:38:19.298Z,6.53
2019-03-22T06:40:59.225Z,6.07
2019-03-22T06:43:40.180Z,5.87
2019-03-22T06:46:20.430Z,5.83
2019-03-22T06:49:00.512Z,5.70
2019-03-22T06:51:40.839Z,6.13
2019-03-22T06:54:31.017Z,5.80
2019-03-22T06:57:02.901Z,5.20
2019-03-22T06:59:44.531Z,5.13
2019-03-22T07:02:25.103Z,5.17
2019-03-22T07:05:05.102Z,5.37
2019-03-22T07:07:45.348Z,4.60
2019-03-22T07:10:25.767Z,4.77
2019-03-22T07:13:06.630Z,9.07
2019-03-22T07:15:46.331Z,5.00
2019-03-22T07:18:26.838Z,4.93
2019-03-22T07:21:07.239Z,5.03
2019-03-22T07:23:47.565Z,4.53
2019-03-22T07:26:29.946Z,5.10
2019-03-22T07:28:57.569Z,5.00
2019-03-22T07:31:44.865Z,5.07
2019-03-22T07:34:25.417Z,5.23
2019-03-22T07:37:05.684Z,5.50
2019-03-22T07:39:48.776Z,5.83
2019-03-22T07:42:29.149Z,6.90
2019-03-22T07:45:09.072Z,7.17
2019-03-22T07:47:49.059Z,8.33
2019-03-22T07:50:29.638Z,6.97
2019-03-22T07:53:09.361Z,7.60
2019-03-22T07:55:49.452Z,8.50
2019-03-22T07:58:29.726Z,8.30
2019-03-22T08:01:09.845Z,8.57
2019-03-22T08:03:49.886Z,8.40
2019-03-22T08:06:29.875Z,8.83
2019-03-22T08:09:11.542Z,9.07
2019-03-22T08:11:53.089Z,8.20
2019-03-22T08:14:33.249Z,8.23
2019-03-22T08:17:01.529Z,8.23
2019-03-22T08:19:48.867Z,8.87
2019-03-22T08:22:36.170Z,8.10
2019-03-22T08:25:23.233Z,7.70
2019-03-22T08:28:03.112Z,6.83
2019-03-22T08:30:43.577Z,7.70
2019-03-22T08:33:23.424Z,7.37
2019-03-22T08:36:04.031Z,6.70
2019-03-22T08:38:43.989Z,6.60
2019-03-22T08:41:24.156Z,6.60
2019-03-22T08:44:04.259Z,6.40
2019-03-22T08:46:45.103Z,7.03
2019-03-22T08:49:25.558Z,6.73
2019-03-22T08:51:54.393Z,6.60
2019-03-22T08:54:41.715Z,7.00
2019-03-22T08:57:29.077Z,6.60
2019-03-22T09:00:09.091Z,7.63
2019-03-22T09:02:51.131Z,9.30
2019-03-22T09:05:31.379Z,9.23
2019-03-22T09:08:11.474Z,9.20
2019-03-22T09:10:51.816Z,10.00
2019-03-22T09:13:31.610Z,9.57
2019-03-22T09:16:11.737Z,9.40
2019-03-22T09:18:53.431Z,9.87
2019-03-22T09:21:33.459Z,9.57
2019-03-22T09:24:14.767Z,8.97
2019-03-22T09:26:54.841Z,9.10
2019-03-22T09:29:35.026Z,8.40
2019-03-22T09:32:15.067Z,8.87
2019-03-22T09:34:55.163Z,10.17
2019-03-22T09:37:36.186Z,9.73
2019-03-22T09:40:16.789Z,9.87
2019-03-22T09:42:56.423Z,10.70
2019-03-22T09:45:24.694Z,10.23
2019-03-22T09:48:06.123Z,10.00
2019-03-22T09:50:48.701Z,10.90
2019-03-22T09:53:30.466Z,10.87
2019-03-22T09:56:10.833Z,10.57
2019-03-22T09:58:50.718Z,11.07
2019-03-22T10:01:31.113Z,10.43
2019-03-22T10:04:11.157Z,10.50
2019-03-22T10:06:52.426Z,10.50
2019-03-22T10:09:32.639Z,10.97
2019-03-22T10:12:12.847Z,11.27
2019-03-22T10:14:40.981Z,11.37
2019-03-22T10:17:28.430Z,11.33
2019-03-22T10:20:15.666Z,11.10
2019-03-22T10:22:56.208Z,11.57
2019-03-22T10:25:36.414Z,11.90
2019-03-22T10:28:04.655Z,11.17
2019-03-22T10:30:51.991Z,11.40
2019-03-22T10:33:39.741Z,10.60
2019-03-22T10:36:19.922Z,10.97
2019-03-22T10:38:59.951Z,10.65
2019-03-22T10:41:40.198Z,10.65
2019-03-22T10:44:20.707Z,9.85
2019-03-22T10:47:00.396Z,9.40
2019-03-22T10:49:41.900Z,11.08
2019-03-22T10:52:21.854Z,10.55
2019-03-22T10:55:17.220Z,10.25
2019-03-22T10:57:44.214Z,11.33
2019-03-22T11:00:23.989Z,11.55
2019-03-22T11:03:03.918Z,11.75
2019-03-22T11:05:44.061Z,11.25
2019-03-22T11:08:25.373Z,10.98
2019-03-22T11:11:05.182Z,9.73
2019-03-22T11:13:45.453Z,10.13
2019-03-22T11:16:25.559Z,10.50
2019-03-22T11:19:05.546Z,11.03
2019-03-22T11:21:45.634Z,10.23
2019-03-22T11:24:26.708Z,11.40
2019-03-22T11:27:06.690Z,12.47
2019-03-22T11:29:47.054Z,13.25
2019-03-22T11:32:27.275Z,13.05
2019-03-22T11:34:56.220Z,13.50
2019-03-22T11:37:44.107Z,12.47
2019-03-22T11:40:25.322Z,13.65
2019-03-22T11:43:08.915Z,13.50
2019-03-22T11:45:49.242Z,13.40
2019-03-22T11:48:29.540Z,14.70
2019-03-22T11:51:09.499Z,15.53
2019-03-22T11:53:49.523Z,14.93
2019-03-22T11:56:29.744Z,13.98
2019-03-22T11:59:09.433Z,14.47
2019-03-22T12:01:49.584Z,14.65
2019-03-22T12:04:29.521Z,14.20
2019-03-22T12:07:09.677Z,14.53
2019-03-22T12:09:49.601Z,14.90
2019-03-22T12:12:29.558Z,14.15
2019-03-22T12:15:09.852Z,14.60
2019-03-22T12:17:38.211Z,15.45
2019-03-22T12:20:25.631Z,15.23
2019-03-22T12:23:12.956Z,15.68
2019-03-22T12:25:53.714Z,16.00
2019-03-22T12:28:34.007Z,15.23
2019-03-22T12:31:14.230Z,15.65
2019-03-22T12:33:54.653Z,14.90
2019-03-22T12:36:34.514Z,14.98
2019-03-22T12:39:14.719Z,15.15
2019-03-22T12:41:55.150Z,15.00
2019-03-22T12:44:34.979Z,14.80
2019-03-22T12:47:15.430Z,14.85
2019-03-22T12:49:55.565Z,16.15
2019-03-22T12:52:35.629Z,15.88
2019-03-22T12:58:28.042Z,16.45
2019-03-22T13:00:56.383Z,16.85
2019-03-22T13:06:38.166Z,17.48
2019-03-22T13:09:47.830Z,16.55
2019-03-22T13:12:35.885Z,16.77
2019-03-22T13:15:17.349Z,16.75
2019-03-22T13:17:57.781Z,17.52
2019-03-22T13:20:26.144Z,18.62
2019-03-22T13:23:13.961Z,17.98
2019-03-22T13:26:01.260Z,18.52
2019-03-22T13:28:41.516Z,19.10
2019-03-22T13:31:21.649Z,20.23
2019-03-22T13:34:02.237Z,20.32
2019-03-22T13:36:42.007Z,19.95
2019-03-22T13:39:22.084Z,20.32
2019-03-22T13:42:02.350Z,19.82
2019-03-22T13:44:42.354Z,20.10
2019-03-22T13:47:22.575Z,19.75
2019-03-22T13:50:02.822Z,19.80
2019-03-22T13:52:43.797Z,21.70
2019-03-22T13:55:24.051Z,21.75
2019-03-22T13:58:04.150Z,21.87
2019-03-22T14:00:44.216Z,21.00
2019-03-22T14:03:24.593Z,22.02
2019-03-22T14:06:04.789Z,22.25
2019-03-22T14:08:44.616Z,23.00
2019-03-22T14:11:24.938Z,22.58
2019-03-22T14:14:05.109Z,23.60
2019-03-22T14:16:45.259Z,22.42
2019-03-22T14:19:26.062Z,22.42
2019-03-22T14:22:06.182Z,22.32
2019-03-22T14:24:46.397Z,22.42
2019-03-22T14:27:28.366Z,22.40
2019-03-22T14:30:08.289Z,21.82
2019-03-22T14:32:48.279Z,22.10
2019-03-22T14:35:28.592Z,22.17
2019-03-22T14:38:10.443Z,22.58
2019-03-22T14:40:50.617Z,21.35
2019-03-22T14:43:30.773Z,21.90
2019-03-22T14:45:59.006Z,22.60
2019-03-22T14:48:27.181Z,22.67
2019-03-22T14:51:06.901Z,23.27
2019-03-22T14:53:46.989Z,23.55
2019-03-22T14:56:27.052Z,24.12
2019-03-22T14:59:07.213Z,22.02
2019-03-22T15:01:47.654Z,23.50
2019-03-22T15:04:27.937Z,23.65
2019-03-22T15:07:19.237Z,23.70
2019-03-22T15:09:50.074Z,23.30
2019-03-22T15:12:30.179Z,23.18
2019-03-22T15:15:18.081Z,22.30
2019-03-22T15:18:24.845Z,22.05
2019-03-22T15:21:27.034Z,23.65
2019-03-22T15:24:29.081Z,23.25
2019-03-22T15:27:28.538Z,24.70
2019-03-22T15:30:27.891Z,23.85
2019-03-22T15:33:34.198Z,24.20
2019-03-22T15:36:28.089Z,23.90
2019-03-22T15:39:27.632Z,24.03
2019-03-22T15:42:09.906Z,23.60
2019-03-22T15:44:50.247Z,23.43
2019-03-22T15:47:30.762Z,23.47
2019-03-22T15:50:10.617Z,23.27
2019-03-22T15:52:50.425Z,22.47
2019-03-22T15:55:31.317Z,23.77
2019-03-22T15:58:11.383Z,23.83
2019-03-22T16:00:51.411Z,23.73
2019-03-22T16:03:19.572Z,24.17
2019-03-22T16:06:06.972Z,22.87
2019-03-22T16:08:35.166Z,22.90
2019-03-22T16:11:23.369Z,22.07
2019-03-22T16:14:04.233Z,21.33
2019-03-22T16:16:43.912Z,21.93
2019-03-22T16:19:23.835Z,23.07
2019-03-22T16:22:04.069Z,22.87
2019-03-22T16:24:43.937Z,21.20
2019-03-22T16:27:24.384Z,22.10
2019-03-22T16:30:04.357Z,22.97
2019-03-22T16:32:44.403Z,21.43
2019-03-22T16:35:24.981Z,21.70
2019-03-22T16:38:06.593Z,22.13
2019-03-22T16:40:46.271Z,22.17
2019-03-22T16:43:26.302Z,22.27
2019-03-22T16:46:05.953Z,22.30
2019-03-22T16:51:44.971Z,21.87
2019-03-22T16:54:25.200Z,23.27
2019-03-22T16:57:04.975Z,23.80
2019-03-22T16:59:44.973Z,21.83
2019-03-22T17:02:24.990Z,22.17
2019-03-22T17:05:05.318Z,22.43
2019-03-22T17:07:45.343Z,23.37
2019-03-22T17:10:25.397Z,23.33
2019-03-22T17:13:05.287Z,24.20
2019-03-22T17:15:45.554Z,23.97
2019-03-22T17:18:26.007Z,24.07
2019-03-22T17:21:06.437Z,23.63
2019-03-22T17:23:46.224Z,24.70
2019-03-22T17:26:26.390Z,28.30
2019-03-22T17:29:06.783Z,28.77
2019-03-22T17:31:46.953Z,26.93
2019-03-22T17:34:27.161Z,28.03
2019-03-22T17:37:09.922Z,26.40
2019-03-22T17:39:49.770Z,25.80
2019-03-22T17:42:29.840Z,46.33
2019-03-22T17:45:09.781Z,33.00
2019-03-22T17:47:49.909Z,34.27
2019-03-22T17:50:30.302Z,36.90
2019-03-22T17:52:58.534Z,28.77
2019-03-22T17:55:47.415Z,22.63
2019-03-22T17:58:34.682Z,21.07
2019-03-22T18:01:15.343Z,19.80
2019-03-22T18:03:53.733Z,23.70
2019-03-22T18:06:33.949Z,22.97
2019-03-22T18:09:14.054Z,26.83
2019-03-22T18:11:54.131Z,33.50
2019-03-22T18:14:34.411Z,23.03
2019-03-22T18:17:14.347Z,21.73
2019-03-22T18:19:54.477Z,21.03
2019-03-22T18:22:35.065Z,21.37
2019-03-22T18:25:15.826Z,22.57
2019-03-22T18:27:55.689Z,23.73
2019-03-22T18:30:35.719Z,24.87
2019-03-22T18:33:15.936Z,20.20
2019-03-22T18:35:56.041Z,17.37
2019-03-22T18:38:36.325Z,15.30
2019-03-22T18:41:16.386Z,13.73
2019-03-22T18:43:56.608Z,13.27
2019-03-22T18:46:36.841Z,12.97
2019-03-22T18:49:16.773Z,13.63
2019-03-22T18:51:56.936Z,13.97
2019-03-22T18:54:37.154Z,14.03
2019-03-22T18:57:17.283Z,14.53
2019-03-22T18:59:57.768Z,14.87
2019-03-22T19:02:37.845Z,15.50
2019-03-22T19:08:17.170Z,18.70
2019-03-22T19:10:57.220Z,17.30
2019-03-22T19:13:37.517Z,15.70
2019-03-22T19:16:17.630Z,13.90
2019-03-22T19:18:57.786Z,14.10
2019-03-22T19:21:37.872Z,13.47
2019-03-22T19:24:18.325Z,14.00
2019-03-22T19:26:46.537Z,13.57
2019-03-22T19:29:34.229Z,13.63
2019-03-22T19:32:21.561Z,13.00
2019-03-22T19:35:02.388Z,13.13
2019-03-22T19:37:42.301Z,13.03
2019-03-22T19:40:22.378Z,12.50
2019-03-22T19:43:02.531Z,12.30
2019-03-22T19:45:42.736Z,13.47
2019-03-22T19:48:22.752Z,11.97
2019-03-22T19:51:02.973Z,12.80
2019-03-22T19:53:43.177Z,13.43
2019-03-22T19:56:23.041Z,15.00
2019-03-22T19:59:03.148Z,18.47
2019-03-22T20:01:31.497Z,17.77
2019-03-22T20:04:19.178Z,15.10
2019-03-22T20:06:59.873Z,13.27
2019-03-22T20:09:41.658Z,12.63
2019-03-22T20:12:21.906Z,11.63
2019-03-22T20:15:03.505Z,12.13
2019-03-22T20:17:45.581Z,11.17
2019-03-22T20:20:25.701Z,11.77
2019-03-22T20:23:05.513Z,11.80
2019-03-22T20:25:45.482Z,10.93
2019-03-22T20:28:25.546Z,11.47
2019-03-22T20:31:06.771Z,11.23
2019-03-22T20:33:46.990Z,12.67
2019-03-22T20:39:40.091Z,11.70
2019-03-22T20:42:20.756Z,12.07
2019-03-22T20:45:01.257Z,11.10
2019-03-22T20:47:41.139Z,11.73
2019-03-22T20:50:22.776Z,11.63
2019-03-22T20:53:03.107Z,11.10
2019-03-22T20:55:43.857Z,10.53
2019-03-22T20:58:24.047Z,10.13
2019-03-22T21:01:05.141Z,9.97
2019-03-22T21:03:44.870Z,10.63
2019-03-22T21:06:25.034Z,9.73
2019-03-22T21:09:05.148Z,10.33
2019-03-22T21:11:45.473Z,10.03
2019-03-22T21:14:25.342Z,10.20
2019-03-22T21:17:05.503Z,9.73
2019-03-22T21:19:45.310Z,10.13
2019-03-22T21:22:25.474Z,10.87
2019-03-22T21:25:05.503Z,10.30
2019-03-22T21:27:33.825Z,10.73
2019-03-22T21:30:22.534Z,10.30
2019-03-22T21:33:10.669Z,10.03
2019-03-22T21:35:50.620Z,10.33
2019-03-22T21:38:30.767Z,9.17
2019-03-22T21:41:11.143Z,9.13
2019-03-22T21:43:51.335Z,9.67
2019-03-22T21:46:19.657Z,9.90
2019-03-22T21:49:06.973Z,9.70
2019-03-22T21:51:47.130Z,8.50
2019-03-22T21:54:27.146Z,9.90
2019-03-22T21:57:07.285Z,9.70
2019-03-22T21:59:47.351Z,8.57
2019-03-22T22:02:15.627Z,8.60
2019-03-22T22:05:02.993Z,7.97
2019-03-22T22:07:50.370Z,7.57
2019-03-22T22:10:18.500Z,8.53
2019-03-22T22:13:07.283Z,8.27
2019-03-22T22:15:54.719Z,7.80
2019-03-22T22:18:35.139Z,8.10
2019-03-22T22:21:05.491Z,8.60
2019-03-22T22:23:52.806Z,9.10
2019-03-22T22:26:40.146Z,8.50
2019-03-22T22:29:27.438Z,8.73
2019-03-22T22:32:07.644Z,8.07
2019-03-22T22:34:47.717Z,8.10
2019-03-22T22:37:15.885Z,8.40
2019-03-22T22:40:03.505Z,8.23
2019-03-22T22:42:50.963Z,8.17
2019-03-22T22:45:31.325Z,8.50
2019-03-22T22:48:11.308Z,8.33
2019-03-22T22:50:51.361Z,8.40
2019-03-22T22:53:31.418Z,8.00
2019-03-22T22:56:11.589Z,7.37
2019-03-22T22:58:51.734Z,7.20
2019-03-22T23:01:33.889Z,7.80
2019-03-22T23:04:14.173Z,7.70
2019-03-22T23:06:53.914Z,7.63
2019-03-22T23:09:34.007Z,7.83
2019-03-22T23:12:14.149Z,7.03
2019-03-22T23:14:53.934Z,7.30
2019-03-22T23:17:35.952Z,7.67
2019-03-22T23:20:16.085Z,7.23
2019-03-22T23:22:57.984Z,7.23
2019-03-22T23:25:38.316Z,7.00
2019-03-22T23:28:20.079Z,7.50
2019-03-22T23:31:00.524Z,6.30
2019-03-22T23:33:41.174Z,7.30
2019-03-22T23:36:20.897Z,6.80
2019-03-22T23:39:00.942Z,6.10
2019-03-22T23:41:41.203Z,6.53
2019-03-22T23:44:21.390Z,6.40
2019-03-22T23:47:01.253Z,6.63
2019-03-22T23:49:41.541Z,6.73
2019-03-22T23:52:21.735Z,6.50
2019-03-22T23:55:02.083Z,6.17
2019-03-22T23:57:42.197Z,6.33
